Time;durP1;ratioP1;P1;durP2;ratioP2;P2;SDS_P1;SDS_P2;PMS_P1;PMS_P2;Temp;Humidity;BMP_temperature;BMP_pressure;BME280_temperature;BME280_humidity;BME280_pressure;Samples;Min_cycle;Max_cycle;Signal;HPM_P1;HPM_P2
2022/01/24 00:00:34;;;;;;;28.88;17.92;;;8.30;74.90;;;;;;5071049;28;20025;-81
2022/01/24 00:03:00;;;;;;;28.00;16.83;;;8.20;74.70;;;;;;5067993;28;20032;-81
2022/01/24 00:05:26;;;;;;;28.35;18.55;;;8.20;74.60;;;;;;5065165;28;20023;-81
2022/01/24 00:07:51;;;;;;;28.13;17.98;;;8.20;74.50;;;;;;5071034;28;20031;-80
2022/01/24 00:10:21;;;;;;;27.10;17.45;;;8.20;74.30;;;;;;5071335;28;20099;-80
2022/01/24 00:18:27;;;;;;;18.92;13.07;;;8.10;73.80;;;;;;5065573;28;20048;-79
2022/01/24 00:26:45;;;;;;;18.90;12.98;;;8.10;73.60;;;;;;5070527;28;20542;-78
2022/01/24 00:29:11;;;;;;;22.88;15.65;;;8.10;73.40;;;;;;5080684;28;20044;-79
2022/01/24 00:31:36;;;;;;;24.70;16.05;;;8.10;73.00;;;;;;5069565;28;20029;-79
2022/01/24 00:34:02;;;;;;;23.08;16.58;;;8.10;73.00;;;;;;5071088;28;20051;-80
2022/01/24 00:36:27;;;;;;;20.25;13.63;;;8.10;73.00;;;;;;5070329;28;20028;-79
2022/01/24 00:38:54;;;;;;;19.25;13.30;;;8.00;72.90;;;;;;5070791;28;20035;-79
2022/01/24 00:41:21;;;;;;;17.52;11.93;;;8.10;73.10;;;;;;5068812;28;20028;-79
2022/01/24 00:46:36;;;;;;;16.40;11.50;;;8.10;72.80;;;;;;5071215;28;20133;-79
2022/01/24 00:57:03;;;;;;;12.77;9.82;;;8.10;72.60;;;;;;5056796;28;20024;-79
2022/01/24 00:59:29;;;;;;;16.77;11.27;;;8.10;72.60;;;;;;5070010;28;20032;-80
2022/01/24 01:01:55;;;;;;;13.63;9.88;;;8.10;72.40;;;;;;5054071;28;20468;-80
2022/01/24 01:04:26;;;;;;;15.02;10.23;;;8.00;72.20;;;;;;5070106;28;20400;-80
2022/01/24 01:06:53;;;;;;;14.73;10.50;;;8.00;72.10;;;;;;5063590;28;20577;-80
2022/01/24 01:20:21;;;;;;;18.33;12.20;;;7.90;71.90;;;;;;5071001;28;20059;-78
2022/01/24 01:22:47;;;;;;;16.08;11.07;;;7.90;71.90;;;;;;5063646;28;20379;-78
2022/01/24 01:25:12;;;;;;;14.50;10.20;;;7.90;71.90;;;;;;5070120;28;20023;-78
2022/01/24 01:27:42;;;;;;;16.70;11.45;;;7.90;71.90;;;;;;5070178;28;20481;-77
2022/01/24 01:30:16;;;;;;;21.55;14.30;;;7.90;71.80;;;;;;5075047;28;20027;-78
2022/01/24 01:32:56;;;;;;;16.52;11.48;;;7.80;71.40;;;;;;5070104;28;20363;-78
2022/01/24 01:38:03;;;;;;;14.80;10.02;;;7.90;71.70;;;;;;5070411;28;20131;-80
2022/01/24 01:54:28;;;;;;;15.98;10.30;;;7.90;71.80;;;;;;5063956;28;20051;-80
2022/01/24 01:56:54;;;;;;;16.15;10.65;;;7.90;71.80;;;;;;5068426;28;20020;-79
2022/01/24 01:59:19;;;;;;;14.07;9.45;;;7.80;71.70;;;;;;5069067;28;20033;-78
2022/01/24 02:01:45;;;;;;;14.55;9.80;;;7.90;71.80;;;;;;5068766;28;20029;-80
2022/01/24 02:04:10;;;;;;;17.20;11.70;;;7.90;71.90;;;;;;5068897;28;20115;-79
2022/01/24 02:06:37;;;;;;;18.88;12.38;;;7.90;71.60;;;;;;5063680;28;20120;-80
2022/01/24 02:09:09;;;;;;;15.05;10.07;;;7.80;71.40;;;;;;5069309;28;20070;-80
2022/01/24 02:11:35;;;;;;;14.18;9.50;;;7.80;71.50;;;;;;5064898;28;20031;-80
2022/01/24 02:14:08;;;;;;;12.88;8.85;;;7.80;71.70;;;;;;5068075;28;20107;-80
2022/01/24 02:16:48;;;;;;;15.45;10.27;;;7.90;71.80;;;;;;5067887;28;20379;-81
2022/01/24 02:20:08;;;;;;;18.25;11.65;;;7.80;71.50;;;;;;5069359;28;20031;-81
2022/01/24 02:24:40;;;;;;;14.23;9.77;;;7.80;71.50;;;;;;5068985;28;20481;-80
2022/01/24 02:27:08;;;;;;;14.25;8.82;;;7.80;71.50;;;;;;5070606;28;20497;-81
2022/01/24 02:32:37;;;;;;;13.63;9.18;;;7.80;71.40;;;;;;5056819;28;20024;-81
2022/01/24 02:35:03;;;;;;;14.40;8.88;;;7.80;71.50;;;;;;5065877;28;20039;-81
2022/01/24 02:37:28;;;;;;;12.48;8.30;;;7.90;71.70;;;;;;5065692;28;20025;-79
2022/01/24 02:39:59;;;;;;;13.68;9.10;;;7.90;71.70;;;;;;5068624;28;20031;-78
2022/01/24 02:53:21;;;;;;;16.08;10.50;;;7.90;71.70;;;;;;5069646;28;20112;-77
2022/01/24 02:55:47;;;;;;;16.02;10.80;;;7.90;71.60;;;;;;5068802;28;20446;-78
2022/01/24 02:58:15;;;;;;;14.05;10.15;;;7.80;71.40;;;;;;5069056;28;20371;-77
2022/01/24 03:00:41;;;;;;;14.60;9.90;;;7.80;71.40;;;;;;5067825;28;20021;-77
2022/01/24 03:03:07;;;;;;;17.75;11.27;;;7.80;71.40;;;;;;5068741;28;20054;-79
2022/01/24 03:05:33;;;;;;;15.18;9.95;;;7.70;71.30;;;;;;5068517;28;20078;-80
2022/01/24 03:07:59;;;;;;;17.77;11.57;;;7.70;71.40;;;;;;5066829;28;20383;-79
2022/01/24 03:10:28;;;;;;;14.23;9.60;;;7.70;71.30;;;;;;5060583;28;20735;-80
2022/01/24 03:15:38;;;;;;;14.10;9.30;;;7.80;71.50;;;;;;5062974;28;20044;-81
2022/01/24 03:18:05;;;;;;;13.40;9.48;;;7.80;71.50;;;;;;5068978;28;20040;-80
2022/01/24 03:20:31;;;;;;;13.55;9.18;;;7.80;71.50;;;;;;5067915;28;20107;-82
2022/01/24 03:22:56;;;;;;;13.80;9.32;;;7.80;71.30;;;;;;5069713;28;20115;-81
2022/01/24 03:25:22;;;;;;;12.38;8.68;;;7.80;71.40;;;;;;5066275;28;20013;-79
2022/01/24 03:27:47;;;;;;;13.07;8.48;;;7.80;71.50;;;;;;5068302;28;20486;-79
2022/01/24 03:30:13;;;;;;;11.30;7.93;;;7.90;71.50;;;;;;5068688;28;20034;-80
2022/01/24 03:32:38;;;;;;;12.20;8.55;;;7.90;71.60;;;;;;5058695;28;20052;-80
2022/01/24 03:35:07;;;;;;;12.32;8.43;;;7.90;71.70;;;;;;5069343;28;20013;-79
2022/01/24 03:37:34;;;;;;;13.48;8.68;;;7.90;71.70;;;;;;5068337;28;20532;-78
2022/01/24 03:40:00;;;;;;;11.43;7.50;;;8.00;71.70;;;;;;5070823;28;20063;-77
2022/01/24 03:42:25;;;;;;;13.40;8.88;;;8.00;71.70;;;;;;5068353;28;20020;-78
2022/01/24 03:44:56;;;;;;;11.40;8.05;;;8.00;71.70;;;;;;5070945;28;20039;-78
2022/01/24 03:50:00;;;;;;;14.38;9.57;;;8.00;71.60;;;;;;5064245;28;20040;-79
2022/01/24 03:52:26;;;;;;;14.00;8.90;;;8.00;71.60;;;;;;5072986;28;20017;-78
2022/01/24 03:54:52;;;;;;;13.18;9.10;;;7.90;71.60;;;;;;5072552;28;20486;-78
2022/01/24 03:57:20;;;;;;;15.07;9.85;;;7.90;71.70;;;;;;5068565;28;20041;-78
2022/01/24 03:59:46;;;;;;;14.02;9.02;;;8.00;71.80;;;;;;5071377;28;20463;-78
2022/01/24 04:02:12;;;;;;;13.18;8.65;;;8.00;71.80;;;;;;5069478;28;20024;-79
2022/01/24 04:04:38;;;;;;;14.60;9.65;;;7.90;71.80;;;;;;5071975;28;20122;-81
2022/01/24 04:07:04;;;;;;;13.95;9.45;;;8.00;72.20;;;;;;5067247;28;20048;-80
2022/01/24 04:09:30;;;;;;;14.82;10.07;;;8.00;72.10;;;;;;5070245;28;20105;-79
2022/01/24 04:11:58;;;;;;;14.13;8.90;;;8.00;72.10;;;;;;5069589;28;20548;-79
2022/01/24 04:22:13;;;;;;;14.85;9.43;;;8.00;72.20;;;;;;5067324;28;20025;-79
2022/01/24 04:24:40;;;;;;;12.50;8.68;;;8.10;72.20;;;;;;5070113;28;20032;-80
2022/01/24 04:27:05;;;;;;;12.32;8.15;;;8.10;72.10;;;;;;5071246;28;20115;-80
2022/01/24 04:29:32;;;;;;;13.73;9.20;;;8.10;72.10;;;;;;5089921;28;20095;-80
2022/01/24 04:31:58;;;;;;;12.90;8.68;;;8.10;72.10;;;;;;5071140;28;20082;-79
2022/01/24 04:34:23;;;;;;;15.48;10.32;;;8.10;72.10;;;;;;5072195;28;20361;-84
2022/01/24 04:36:49;;;;;;;14.27;9.63;;;8.10;72.10;;;;;;5067616;28;21068;-81
2022/01/24 04:39:15;;;;;;;13.27;9.30;;;8.10;72.00;;;;;;5071319;28;20071;-79
2022/01/24 04:41:45;;;;;;;12.55;8.63;;;8.10;71.90;;;;;;5067540;28;20028;-79
2022/01/24 04:44:29;;;;;;;12.55;8.82;;;8.10;71.90;;;;;;5071247;28;20048;-79
2022/01/24 04:54:44;;;;;;;17.05;11.20;;;8.10;72.00;;;;;;5068264;28;20046;-79
2022/01/24 04:57:19;;;;;;;16.63;11.27;;;8.10;71.90;;;;;;5068506;28;20032;-79
2022/01/24 04:59:47;;;;;;;16.13;10.80;;;8.00;71.80;;;;;;5070512;28;20024;-79
2022/01/24 05:02:14;;;;;;;15.85;10.52;;;8.00;71.90;;;;;;5068603;28;20025;-80
2022/01/24 05:04:40;;;;;;;12.95;8.38;;;8.00;71.80;;;;;;5070583;28;20113;-80
2022/01/24 05:07:06;;;;;;;13.23;9.20;;;8.00;71.90;;;;;;5069707;28;20129;-79
2022/01/24 05:09:41;;;;;;;13.73;9.18;;;8.00;71.90;;;;;;5070829;28;20158;-78
2022/01/24 05:25:32;;;;;;;16.67;10.82;;;7.80;72.00;;;;;;5069544;28;20130;-78
2022/01/24 05:27:58;;;;;;;16.05;11.20;;;7.80;72.20;;;;;;5078948;28;20479;-79
2022/01/24 05:30:23;;;;;;;12.50;8.82;;;7.80;72.40;;;;;;5080743;28;20121;-80
2022/01/24 05:32:49;;;;;;;12.95;9.00;;;7.80;72.40;;;;;;5079194;28;20033;-81
2022/01/24 05:35:14;;;;;;;13.45;9.55;;;7.80;72.40;;;;;;5069906;28;20019;-81
2022/01/24 05:37:40;;;;;;;13.50;9.80;;;7.70;72.50;;;;;;5068494;28;20696;-80
2022/01/24 05:40:07;;;;;;;13.23;10.02;;;7.70;72.50;;;;;;5062880;28;20063;-81
2022/01/24 05:42:33;;;;;;;15.38;11.00;;;7.70;72.50;;;;;;5064226;28;20077;-81
2022/01/24 05:44:59;;;;;;;13.70;9.80;;;7.60;72.40;;;;;;5070196;28;20021;-81
2022/01/24 05:47:25;;;;;;;17.15;10.85;;;7.70;72.60;;;;;;5081170;28;20036;-81
2022/01/24 05:49:50;;;;;;;16.63;10.77;;;7.60;72.40;;;;;;5068550;28;20055;-80
2022/01/24 05:52:16;;;;;;;15.93;10.75;;;7.70;72.60;;;;;;5069876;28;20556;-79
2022/01/24 05:54:42;;;;;;;12.70;9.45;;;7.70;72.60;;;;;;5071908;28;20075;-78
2022/01/24 05:57:09;;;;;;;16.55;10.65;;;7.70;72.60;;;;;;5067047;28;20565;-79
2022/01/24 05:59:35;;;;;;;14.88;10.48;;;7.70;72.60;;;;;;5061200;28;20085;-78
2022/01/24 06:02:01;;;;;;;14.35;9.30;;;7.70;72.50;;;;;;5060858;28;20112;-79
2022/01/24 06:04:26;;;;;;;12.45;8.70;;;7.70;72.70;;;;;;5056841;28;20017;-78
2022/01/24 06:06:52;;;;;;;13.50;9.15;;;7.70;72.60;;;;;;5067691;28;20627;-79
2022/01/24 06:09:17;;;;;;;12.98;9.35;;;7.70;72.50;;;;;;5075580;28;20360;-79
2022/01/24 06:11:43;;;;;;;12.13;8.43;;;7.70;72.50;;;;;;5074192;28;20170;-81
2022/01/24 06:14:10;;;;;;;13.30;9.50;;;7.70;72.50;;;;;;5072584;28;20024;-81
2022/01/24 06:16:35;;;;;;;10.32;7.13;;;7.60;72.40;;;;;;5083996;28;20020;-79
2022/01/24 06:19:01;;;;;;;12.63;8.82;;;7.60;72.40;;;;;;5074911;28;20024;-79
2022/01/24 06:21:26;;;;;;;13.00;9.13;;;7.60;72.30;;;;;;5069504;28;20020;-77
2022/01/24 06:23:52;;;;;;;12.75;8.70;;;7.50;72.40;;;;;;5074178;28;20043;-79
2022/01/24 06:26:18;;;;;;;14.73;10.15;;;7.60;72.40;;;;;;5068692;28;20675;-78
2022/01/24 06:28:44;;;;;;;14.25;10.02;;;7.50;72.20;;;;;;5069532;28;20021;-77
2022/01/24 06:31:09;;;;;;;10.65;8.07;;;7.40;72.30;;;;;;5072981;28;20027;-78
2022/01/24 06:33:35;;;;;;;14.40;10.15;;;7.30;72.50;;;;;;5076679;28;20012;-77
2022/01/24 06:36:01;;;;;;;11.45;8.23;;;7.20;72.50;;;;;;5069887;28;20031;-76
2022/01/24 06:38:27;;;;;;;12.52;9.32;;;7.20;72.70;;;;;;5067232;28;20036;-77
2022/01/24 06:40:52;;;;;;;13.95;9.77;;;7.20;72.90;;;;;;5067783;28;20029;-77
2022/01/24 06:43:18;;;;;;;13.75;9.98;;;7.10;72.70;;;;;;5061381;28;20020;-84
2022/01/24 06:45:44;;;;;;;14.82;9.65;;;7.10;72.90;;;;;;5063962;28;20547;-76
2022/01/24 06:48:10;;;;;;;12.02;8.80;;;7.00;72.90;;;;;;5068040;28;20031;-76
2022/01/24 06:50:35;;;;;;;15.45;11.10;;;7.00;73.10;;;;;;5060792;28;20539;-77
2022/01/24 06:53:01;;;;;;;16.08;10.52;;;6.90;72.90;;;;;;5063453;28;20029;-79
2022/01/24 06:55:27;;;;;;;11.30;8.07;;;6.80;73.00;;;;;;5060956;28;20058;-76
2022/01/24 06:57:53;;;;;;;12.25;8.90;;;6.80;73.20;;;;;;5068925;28;20036;-73
2022/01/24 07:00:25;;;;;;;11.88;8.48;;;6.90;73.40;;;;;;5064845;28;20642;-84
2022/01/24 07:02:53;;;;;;;14.52;10.35;;;6.80;73.40;;;;;;5073093;28;20039;-76
2022/01/24 07:05:19;;;;;;;10.32;7.88;;;6.80;73.40;;;;;;5056594;28;20131;-76
2022/01/24 07:07:44;;;;;;;12.70;9.15;;;6.90;73.60;;;;;;5064339;28;20119;-76
2022/01/24 07:10:10;;;;;;;12.70;8.85;;;6.90;73.60;;;;;;5069615;28;20032;-76
2022/01/24 07:12:35;;;;;;;13.57;9.43;;;6.90;73.60;;;;;;5058857;28;20440;-77
2022/01/24 07:15:07;;;;;;;10.75;7.70;;;6.90;73.60;;;;;;5072033;28;20089;-78
2022/01/24 07:20:18;;;;;;;13.65;9.65;;;6.80;73.40;;;;;;5062056;28;20391;-77
2022/01/24 07:22:44;;;;;;;11.73;8.75;;;6.80;73.50;;;;;;5058563;28;20025;-78
2022/01/24 07:25:10;;;;;;;15.63;10.38;;;6.80;73.60;;;;;;5070091;28;20086;-78
2022/01/24 07:27:36;;;;;;;13.27;9.73;;;6.80;73.50;;;;;;5065545;28;20059;-81
2022/01/24 07:30:03;;;;;;;14.30;10.95;;;6.80;73.50;;;;;;5075779;28;20446;-81
2022/01/24 07:32:29;;;;;;;14.18;9.90;;;6.70;73.30;;;;;;5075390;28;20020;-76
2022/01/24 07:34:55;;;;;;;14.48;10.93;;;6.70;73.40;;;;;;5076182;28;20039;-77
2022/01/24 07:37:21;;;;;;;11.73;9.00;;;6.70;73.40;;;;;;5065135;28;20028;-76
2022/01/24 07:39:48;;;;;;;12.00;9.25;;;6.70;73.60;;;;;;5058380;28;20436;-76
2022/01/24 07:42:16;;;;;;;14.95;11.07;;;6.70;73.60;;;;;;5065055;28;20021;-77
2022/01/24 07:44:44;;;;;;;14.40;10.57;;;6.60;73.30;;;;;;5070390;28;20062;-76
2022/01/24 07:47:10;;;;;;;12.95;9.85;;;6.60;73.20;;;;;;5056381;28;20029;-76
2022/01/24 07:49:36;;;;;;;12.13;9.70;;;6.50;73.20;;;;;;5060686;28;20028;-76
2022/01/24 07:52:02;;;;;;;13.05;9.15;;;6.50;73.20;;;;;;5056544;28;20044;-75
2022/01/24 07:54:28;;;;;;;12.88;10.25;;;6.60;73.40;;;;;;5068522;28;20495;-76
2022/01/24 07:56:53;;;;;;;13.43;10.45;;;6.60;73.20;;;;;;5064666;28;20042;-77
2022/01/24 07:59:20;;;;;;;13.85;10.35;;;6.50;73.00;;;;;;5066334;28;20020;-77
2022/01/24 08:01:46;;;;;;;12.43;9.38;;;6.50;73.10;;;;;;5067862;28;20028;-79
2022/01/24 08:04:12;;;;;;;12.60;9.25;;;6.50;73.10;;;;;;5064559;28;20031;-74
2022/01/24 08:06:37;;;;;;;14.35;10.80;;;6.60;73.20;;;;;;5057138;28;20033;-75
2022/01/24 08:09:05;;;;;;;14.65;9.85;;;6.60;73.20;;;;;;5063953;28;20017;-75
2022/01/24 08:11:31;;;;;;;11.30;8.82;;;6.60;73.10;;;;;;5061845;28;20036;-74
2022/01/24 08:13:57;;;;;;;10.88;8.25;;;6.60;73.10;;;;;;5068587;28;20024;-75
2022/01/24 08:16:22;;;;;;;13.77;10.20;;;6.60;73.00;;;;;;5066251;28;20074;-75
2022/01/24 08:18:51;;;;;;;12.20;9.73;;;6.50;72.90;;;;;;5066107;28;20567;-75
2022/01/24 08:21:17;;;;;;;11.50;8.85;;;6.50;72.80;;;;;;5064644;28;20028;-76
2022/01/24 08:23:42;;;;;;;11.07;8.60;;;6.50;73.00;;;;;;5064332;28;20032;-76
2022/01/24 08:26:08;;;;;;;9.98;7.88;;;6.50;72.90;;;;;;5068293;28;20033;-74
2022/01/24 08:28:34;;;;;;;10.65;8.18;;;6.50;72.70;;;;;;5077118;28;20040;-75
2022/01/24 08:31:00;;;;;;;10.18;7.95;;;6.50;72.80;;;;;;5066801;28;20038;-77
2022/01/24 08:33:26;;;;;;;10.18;7.75;;;6.60;73.20;;;;;;5063940;28;20020;-76
2022/01/24 08:35:52;;;;;;;12.50;8.93;;;6.60;72.70;;;;;;5069706;28;20032;-76
2022/01/24 08:38:19;;;;;;;11.35;8.73;;;6.70;72.70;;;;;;5065133;28;20036;-77
2022/01/24 08:40:47;;;;;;;9.95;7.35;;;6.60;72.60;;;;;;5071999;28;20024;-76
2022/01/24 08:43:13;;;;;;;9.63;7.35;;;6.70;72.50;;;;;;5075656;28;20024;-76
2022/01/24 08:48:13;;;;;;;9.93;7.03;;;6.70;72.40;;;;;;5072935;28;20024;-76
2022/01/24 08:50:41;;;;;;;9.30;7.13;;;6.70;72.40;;;;;;5069802;28;20037;-73
2022/01/24 08:53:07;;;;;;;10.93;8.00;;;6.80;72.50;;;;;;5067578;28;20680;-75
2022/01/24 08:55:34;;;;;;;9.82;7.93;;;6.80;72.40;;;;;;5058535;28;20036;-74
2022/01/24 08:58:01;;;;;;;11.95;8.70;;;6.70;72.40;;;;;;5071837;28;20044;-75
2022/01/24 09:00:27;;;;;;;11.70;8.77;;;6.70;72.10;;;;;;5068403;28;20513;-75
2022/01/24 09:02:53;;;;;;;12.70;8.80;;;6.70;72.30;;;;;;5073241;28;20029;-75
2022/01/24 09:05:22;;;;;;;11.13;9.05;;;6.60;72.30;;;;;;5066024;28;20143;-75
2022/01/24 09:07:48;;;;;;;10.70;8.57;;;6.60;72.40;;;;;;5070811;28;20074;-76
2022/01/24 09:10:13;;;;;;;11.57;8.43;;;6.60;72.40;;;;;;5076638;28;20052;-77
2022/01/24 09:12:39;;;;;;;9.18;7.28;;;6.60;72.40;;;;;;5067075;28;20049;-76
2022/01/24 09:15:05;;;;;;;11.10;9.30;;;6.60;72.40;;;;;;5067866;28;20031;-77
2022/01/24 09:17:31;;;;;;;12.40;9.13;;;6.60;72.40;;;;;;5072863;28;20075;-75
2022/01/24 09:19:57;;;;;;;10.38;7.60;;;6.60;72.30;;;;;;5066743;28;20124;-75
2022/01/24 09:22:22;;;;;;;8.80;6.85;;;6.70;72.40;;;;;;5064889;28;20382;-75
2022/01/24 09:24:48;;;;;;;9.35;7.28;;;6.70;72.40;;;;;;5066519;28;20395;-76
2022/01/24 09:27:15;;;;;;;9.27;7.38;;;6.80;72.50;;;;;;5075372;28;20372;-75
2022/01/24 09:29:42;;;;;;;9.20;6.68;;;6.80;72.40;;;;;;5070912;28;20483;-77
2022/01/24 09:32:07;;;;;;;11.32;8.13;;;6.90;72.50;;;;;;5074243;28;20024;-76
2022/01/24 09:34:33;;;;;;;10.82;8.38;;;6.90;72.40;;;;;;5077847;28;20065;-75
2022/01/24 09:37:00;;;;;;;11.00;8.60;;;6.90;72.30;;;;;;5075081;28;20032;-76
2022/01/24 09:39:26;;;;;;;12.05;9.30;;;6.80;72.10;;;;;;5074137;28;20028;-77
2022/01/24 09:41:52;;;;;;;10.57;8.23;;;6.80;72.20;;;;;;5070975;28;20073;-76
2022/01/24 09:44:17;;;;;;;10.07;8.45;;;6.80;72.20;;;;;;5071119;28;20020;-76
2022/01/24 09:46:46;;;;;;;8.43;6.95;;;6.90;72.30;;;;;;5075640;28;20012;-78
2022/01/24 09:49:12;;;;;;;7.55;5.90;;;6.90;72.30;;;;;;5076057;28;20032;-75
2022/01/24 09:51:38;;;;;;;8.55;6.13;;;6.90;72.30;;;;;;5074997;28;20025;-73
2022/01/24 09:54:06;;;;;;;8.07;6.18;;;6.90;72.30;;;;;;5068263;28;20037;-76
2022/01/24 09:56:34;;;;;;;7.05;5.50;;;6.90;72.20;;;;;;5066662;28;20024;-75
2022/01/24 09:59:00;;;;;;;10.48;7.30;;;6.90;72.30;;;;;;5067043;28;20506;-75
2022/01/24 10:01:26;;;;;;;10.00;7.90;;;7.00;72.30;;;;;;5059643;28;20117;-76
2022/01/24 10:04:12;;;;;;;11.20;8.70;;;7.00;72.30;;;;;;5062320;28;20056;-74
2022/01/24 10:07:13;;;;;;;10.60;8.50;;;7.00;72.10;;;;;;5069199;28;20024;-76
2022/01/24 10:09:49;;;;;;;8.25;7.30;;;7.00;72.00;;;;;;5075066;28;20024;-75
2022/01/24 10:17:44;;;;;;;11.60;9.35;;;6.80;72.00;;;;;;5076319;28;20105;-76
2022/01/24 10:20:18;;;;;;;10.88;9.25;;;6.80;72.00;;;;;;5074220;28;20036;-77
2022/01/24 10:23:05;;;;;;;10.93;8.55;;;6.80;72.20;;;;;;5072502;28;20036;-76
2022/01/24 10:25:32;;;;;;;13.30;10.13;;;6.80;72.00;;;;;;5075654;28;20035;-76
2022/01/24 10:28:03;;;;;;;11.63;9.65;;;6.80;72.00;;;;;;5076093;28;20099;-76
2022/01/24 10:30:30;;;;;;;10.00;8.33;;;6.70;71.90;;;;;;5068839;28;20060;-76
2022/01/24 10:32:56;;;;;;;12.32;9.93;;;6.80;72.10;;;;;;5063173;28;20020;-76
2022/01/24 10:35:38;;;;;;;13.88;9.30;;;6.90;72.10;;;;;;5064306;28;20081;-78
2022/01/24 10:38:44;;;;;;;9.93;8.32;;;6.90;72.20;;;;;;5060341;28;20048;-78
2022/01/24 10:44:04;;;;;;;11.23;9.60;;;6.80;72.10;;;;;;5053124;28;20036;-78
2022/01/24 10:46:30;;;;;;;11.70;10.13;;;6.70;72.40;;;;;;5067811;28;20059;-77
2022/01/24 10:49:09;;;;;;;16.60;12.80;;;6.70;72.60;;;;;;5066427;28;20028;-75
2022/01/24 10:51:40;;;;;;;11.60;9.75;;;6.70;72.40;;;;;;5061900;28;20020;-77
2022/01/24 10:54:05;;;;;;;11.63;8.75;;;6.70;72.40;;;;;;5064560;28;20028;-77
2022/01/24 10:56:32;;;;;;;11.73;9.93;;;6.70;72.50;;;;;;5065248;28;20039;-76
2022/01/24 10:59:22;;;;;;;10.32;9.27;;;6.60;72.40;;;;;;5066765;28;20486;-76
2022/01/24 11:01:52;;;;;;;12.43;10.45;;;6.50;72.60;;;;;;5062417;28;20033;-76
2022/01/24 11:04:20;;;;;;;12.68;11.15;;;6.50;72.80;;;;;;5068017;28;20036;-75
2022/01/24 11:06:51;;;;;;;11.25;10.05;;;6.40;73.00;;;;;;5064563;28;20111;-74
2022/01/24 11:09:28;;;;;;;12.15;10.40;;;6.50;73.30;;;;;;5067346;28;20025;-76
2022/01/24 11:11:59;;;;;;;12.68;10.18;;;6.50;73.30;;;;;;5062747;28;20037;-75
2022/01/24 11:14:26;;;;;;;13.20;11.38;;;6.60;73.20;;;;;;5066664;28;20025;-76
2022/01/24 11:16:53;;;;;;;12.35;10.50;;;6.60;73.10;;;;;;5060490;28;20103;-75
2022/01/24 11:21:54;;;;;;;9.80;8.63;;;6.70;72.90;;;;;;5065460;28;20028;-74
2022/01/24 11:24:27;;;;;;;10.25;8.73;;;6.70;72.90;;;;;;5075252;28;20039;-74
2022/01/24 11:26:53;;;;;;;12.20;10.25;;;6.70;73.00;;;;;;5068114;28;20410;-73
2022/01/24 11:29:19;;;;;;;12.63;11.00;;;6.70;72.90;;;;;;5070896;28;20036;-73
2022/01/24 11:32:11;;;;;;;12.13;10.52;;;6.70;72.70;;;;;;5069155;28;20027;-73
2022/01/24 11:34:40;;;;;;;15.02;11.80;;;6.70;72.90;;;;;;5066555;28;20048;-73
2022/01/24 11:37:07;;;;;;;14.68;12.10;;;6.70;72.80;;;;;;5061239;28;20161;-74
2022/01/24 11:39:34;;;;;;;12.90;11.27;;;6.60;72.90;;;;;;5062106;28;20127;-76
2022/01/24 11:42:02;;;;;;;11.02;9.07;;;6.70;73.10;;;;;;5067705;28;20559;-76
2022/01/24 11:44:48;;;;;;;10.73;9.13;;;6.70;73.10;;;;;;5075057;28;20460;-75
2022/01/24 11:47:22;;;;;;;11.02;8.73;;;6.70;72.90;;;;;;5064203;28;20021;-76
2022/01/24 11:49:52;;;;;;;10.55;8.48;;;6.70;72.90;;;;;;5069997;28;20120;-78
2022/01/24 11:52:18;;;;;;;10.13;8.80;;;6.80;72.80;;;;;;5064133;28;20529;-76
2022/01/24 11:54:55;;;;;;;9.63;7.90;;;6.80;72.90;;;;;;5059950;28;20021;-76
2022/01/24 11:57:23;;;;;;;8.60;6.90;;;6.80;72.80;;;;;;5066491;28;20029;-76
2022/01/24 12:00:10;;;;;;;7.40;6.45;;;6.90;72.90;;;;;;5069097;28;20035;-77
2022/01/24 12:02:42;;;;;;;10.88;8.82;;;6.90;72.80;;;;;;5064943;28;20021;-74
2022/01/24 12:05:18;;;;;;;10.18;9.07;;;6.90;72.70;;;;;;5068392;28;20037;-75
2022/01/24 12:07:45;;;;;;;9.93;8.63;;;7.00;72.60;;;;;;5064665;28;20383;-75
2022/01/24 12:10:40;;;;;;;10.50;8.98;;;7.00;72.40;;;;;;5067591;28;20054;-76
2022/01/24 12:13:26;;;;;;;9.48;7.20;;;7.00;72.40;;;;;;5058648;28;20491;-80
2022/01/24 12:15:53;;;;;;;8.23;6.03;;;7.10;72.50;;;;;;5069708;28;20013;-77
2022/01/24 12:18:43;;;;;;;11.77;9.00;;;7.10;72.50;;;;;;5068469;28;20030;-78
2022/01/24 12:21:09;;;;;;;12.02;9.13;;;7.20;72.40;;;;;;5065197;28;20112;-77
2022/01/24 12:23:41;;;;;;;12.27;10.18;;;7.10;72.30;;;;;;5064914;28;20051;-78
2022/01/24 12:26:22;;;;;;;12.18;10.18;;;7.00;72.20;;;;;;5066138;28;20430;-77
2022/01/24 12:28:50;;;;;;;9.38;8.38;;;7.00;72.10;;;;;;5084340;28;20035;-78
2022/01/24 12:31:36;;;;;;;9.82;8.30;;;7.00;72.30;;;;;;5072524;28;20017;-78
2022/01/24 12:34:33;;;;;;;12.80;10.88;;;7.00;72.30;;;;;;5059445;28;20410;-76
2022/01/24 12:37:04;;;;;;;13.30;10.90;;;7.00;72.20;;;;;;5061440;28;20594;-79
2022/01/24 12:39:45;;;;;;;13.93;11.07;;;6.90;72.30;;;;;;5059715;28;20057;-77
2022/01/24 12:42:18;;;;;;;11.07;9.38;;;6.90;72.40;;;;;;5063472;28;20025;-77
2022/01/24 12:47:17;;;;;;;14.15;11.82;;;7.00;73.30;;;;;;5064802;28;20039;-77
2022/01/24 12:49:45;;;;;;;8.75;7.85;;;7.00;72.40;;;;;;5055496;28;20025;-76
2022/01/24 12:52:16;;;;;;;11.10;9.50;;;6.90;72.50;;;;;;5062323;28;20074;-75
2022/01/24 12:54:49;;;;;;;12.15;10.35;;;6.90;72.50;;;;;;5067275;28;20025;-78
2022/01/24 12:57:18;;;;;;;12.18;9.80;;;6.90;72.70;;;;;;5057175;28;20028;-77
2022/01/24 12:59:54;;;;;;;8.00;7.20;;;7.00;72.80;;;;;;5065822;28;20029;-77
2022/01/24 13:02:26;;;;;;;12.30;10.93;;;7.00;72.80;;;;;;5056556;28;20025;-76
2022/01/24 13:04:58;;;;;;;12.20;10.52;;;7.00;72.70;;;;;;5060413;28;20130;-75
2022/01/24 13:07:23;;;;;;;12.30;10.75;;;7.00;72.70;;;;;;5066172;28;20032;-75
2022/01/24 13:09:49;;;;;;;10.13;9.05;;;7.00;72.50;;;;;;5064702;28;20033;-73
2022/01/24 13:12:15;;;;;;;13.75;11.90;;;7.00;72.60;;;;;;5075706;28;20070;-75
2022/01/24 13:14:47;;;;;;;13.80;12.40;;;6.90;72.40;;;;;;5070422;28;20042;-77
2022/01/24 13:21:07;;;;;;;13.05;10.95;;;6.70;72.60;;;;;;5065532;28;20239;-77
2022/01/24 13:22:59;;;;;;;9.10;7.57;;;6.80;72.80;;;;;;5068240;28;20089;-77
2022/01/24 13:25:28;;;;;;;8.50;7.60;;;6.90;72.80;;;;;;5064801;28;20017;-74
2022/01/24 13:27:57;;;;;;;15.30;12.93;;;7.00;72.70;;;;;;5069993;28;20186;-75
2022/01/24 13:30:48;;;;;;;11.45;8.90;;;6.90;72.20;;;;;;5061965;28;20036;-75
2022/01/24 13:33:16;;;;;;;13.95;12.45;;;6.90;72.40;;;;;;5055321;28;20480;-74
2022/01/24 13:35:49;;;;;;;12.27;10.98;;;6.80;72.20;;;;;;5061302;28;20037;-76
2022/01/24 13:38:16;;;;;;;14.90;12.70;;;6.90;72.40;;;;;;5063672;28;20043;-74
2022/01/24 13:40:59;;;;;;;14.82;12.45;;;6.80;72.50;;;;;;5064278;28;20077;-76
2022/01/24 13:44:01;;;;;;;10.43;8.57;;;6.90;72.80;;;;;;5063757;28;20515;-75
2022/01/24 13:46:38;;;;;;;16.10;14.40;;;7.00;72.80;;;;;;5065156;28;20016;-75
2022/01/24 13:49:16;;;;;;;11.52;10.30;;;6.90;72.50;;;;;;5059627;28;20435;-77
2022/01/24 13:51:43;;;;;;;11.32;10.02;;;7.00;72.60;;;;;;5068657;28;20032;-75
2022/01/24 13:54:16;;;;;;;13.07;10.43;;;7.00;72.60;;;;;;5064663;28;20115;-75
2022/01/24 13:56:44;;;;;;;11.60;10.40;;;7.10;72.60;;;;;;5057903;28;20032;-77
2022/01/24 13:59:17;;;;;;;12.48;11.13;;;7.10;72.60;;;;;;5060769;28;20086;-76
2022/01/24 14:01:56;;;;;;;13.60;11.43;;;7.10;72.50;;;;;;5069158;28;20029;-76
2022/01/24 14:04:28;;;;;;;15.82;12.98;;;7.10;72.50;;;;;;5071148;28;20020;-76
2022/01/24 14:06:59;;;;;;;15.37;12.27;;;7.10;72.30;;;;;;5067344;28;20020;-76
2022/01/24 14:09:34;;;;;;;12.80;11.18;;;7.20;72.40;;;;;;5065818;28;20020;-73
2022/01/24 14:12:00;;;;;;;14.38;12.40;;;7.20;72.40;;;;;;5058628;28;20023;-74
2022/01/24 14:14:36;;;;;;;12.00;10.10;;;7.20;72.40;;;;;;5065228;28;20379;-75
2022/01/24 14:19:39;;;;;;;16.95;15.13;;;7.10;72.20;;;;;;5065081;28;20032;-77
2022/01/24 14:22:13;;;;;;;14.57;13.02;;;7.10;72.20;;;;;;5060315;28;20379;-76
2022/01/24 14:24:55;;;;;;;16.05;13.82;;;7.10;72.20;;;;;;5058761;28;20047;-76
2022/01/24 14:27:38;;;;;;;13.67;12.10;;;7.00;72.10;;;;;;5059734;28;20039;-79
2022/01/24 14:30:14;;;;;;;16.63;13.75;;;7.00;72.30;;;;;;5071941;28;20028;-77
2022/01/24 14:32:47;;;;;;;16.83;14.85;;;6.90;72.00;;;;;;5074650;28;20028;-76
2022/01/24 14:35:18;;;;;;;16.20;14.50;;;6.90;72.00;;;;;;5068205;28;20048;-76
2022/01/24 14:37:53;;;;;;;12.55;11.10;;;6.80;72.20;;;;;;5066575;28;20029;-76
2022/01/24 14:40:47;;;;;;;10.80;9.70;;;6.80;72.30;;;;;;5067194;28;20039;-77
2022/01/24 14:46:05;;;;;;;15.27;12.80;;;6.90;72.20;;;;;;5072585;28;20116;-78
2022/01/24 14:48:31;;;;;;;12.82;11.43;;;7.00;72.30;;;;;;5074733;28;20282;-77
2022/01/24 14:50:57;;;;;;;11.65;10.35;;;7.00;72.30;;;;;;5075080;28;20088;-76
2022/01/24 14:53:28;;;;;;;12.88;11.48;;;7.00;72.40;;;;;;5075360;28;20059;-77
2022/01/24 14:55:55;;;;;;;15.73;13.15;;;7.00;72.20;;;;;;5077334;28;20044;-79
2022/01/24 14:58:20;;;;;;;17.52;14.48;;;7.00;72.10;;;;;;5075466;28;20048;-76
2022/01/24 15:00:46;;;;;;;17.58;13.93;;;7.00;72.10;;;;;;5065617;28;20032;-76